createdAt,value
2023-01-08T00:04:36.953Z,99703.88
2023-01-08T00:09:39.738Z,99682.13
2023-01-08T00:14:43.985Z,99683.81
2023-01-08T00:19:46.717Z,99686.50
2023-01-08T00:24:49.448Z,99690.47
2023-01-08T00:29:53.579Z,99685.38
2023-01-08T00:34:56.363Z,99680.97
2023-01-08T00:39:59.205Z,99681.28
2023-01-08T00:45:03.331Z,99668.41
2023-01-08T00:50:06.873Z,99664.00
2023-01-08T00:55:10.073Z,99658.50
2023-01-08T01:00:16.177Z,99650.97
2023-01-08T01:05:19.091Z,99650.00
2023-01-08T01:10:21.908Z,99654.78
2023-01-08T01:15:26.251Z,99640.06
2023-01-08T01:20:29.267Z,99638.22
2023-01-08T01:25:32.081Z,99642.16
2023-01-08T01:30:36.279Z,99633.81
2023-01-08T01:35:39.185Z,99638.88
2023-01-08T01:40:42.943Z,99620.75
2023-01-08T01:45:47.129Z,99614.22
2023-01-08T01:50:50.838Z,99609.56
2023-01-08T01:55:53.594Z,99613.81
2023-01-08T02:00:59.018Z,99599.19
2023-01-08T02:06:03.997Z,99598.03
2023-01-08T02:11:08.582Z,99596.06
2023-01-08T02:16:15.131Z,99591.38
2023-01-08T02:21:20.580Z,99594.94
2023-01-08T02:26:25.061Z,99591.53
2023-01-08T02:31:28.597Z,99592.38
2023-01-08T02:36:37.574Z,99586.69
2023-01-08T02:41:56.166Z,99585.16
2023-01-08T02:46:58.936Z,99580.47
2023-01-08T02:52:01.730Z,99563.47
2023-01-08T02:57:07.672Z,99546.34
2023-01-08T03:02:11.026Z,99531.72
2023-01-08T03:07:13.947Z,99532.72
2023-01-08T03:12:20.131Z,99529.03
2023-01-08T03:17:24.053Z,99540.63
2023-01-08T03:22:26.830Z,99533.41
2023-01-08T03:27:30.939Z,99514.56
2023-01-08T03:32:33.703Z,99534.97
2023-01-08T03:37:38.339Z,99534.97
2023-01-08T03:42:42.987Z,99532.44
2023-01-08T03:47:45.713Z,99518.84
2023-01-08T03:52:48.439Z,99522.38
2023-01-08T03:57:52.590Z,99537.34
2023-01-08T04:02:55.356Z,99521.22
2023-01-08T04:07:58.294Z,99522.06
2023-01-08T04:13:02.444Z,99516.69
2023-01-08T04:18:05.387Z,99529.13
2023-01-08T04:23:08.140Z,99532.81
2023-01-08T04:28:12.250Z,99519.22
2023-01-08T04:33:15.015Z,99526.59
2023-01-08T04:38:17.714Z,99525.44
2023-01-08T04:43:22.041Z,99510.97
2023-01-08T04:48:24.795Z,99514.69
2023-01-08T04:53:27.791Z,99504.91
2023-01-08T04:58:31.915Z,99513.66
2023-01-08T05:03:34.716Z,99504.59
2023-01-08T05:08:37.577Z,99497.53
2023-01-08T05:13:41.816Z,99501.06
2023-01-08T05:18:44.643Z,99492.44
2023-01-08T05:23:48.283Z,99492.75
2023-01-08T05:28:52.812Z,99485.53
2023-01-08T05:33:55.592Z,99489.81
2023-01-08T05:38:58.368Z,99488.44
2023-01-08T05:44:02.565Z,99482.50
2023-01-08T05:49:05.452Z,99476.28
2023-01-08T05:54:08.529Z,99466.34
2023-01-08T05:59:13.422Z,99471.53
2023-01-08T06:04:16.219Z,99464.13
2023-01-08T06:09:19.820Z,99470.97
2023-01-08T06:14:24.022Z,99477.34
2023-01-08T06:19:26.886Z,99490.63
2023-01-08T06:24:29.654Z,99483.72
2023-01-08T06:29:33.866Z,99482.34
2023-01-08T06:34:36.689Z,99488.41
2023-01-08T06:39:39.530Z,99488.56
2023-01-08T06:44:43.841Z,99494.06
2023-01-08T06:49:46.772Z,99482.63
2023-01-08T06:54:49.582Z,99487.84
2023-01-08T06:59:53.700Z,99488.56
2023-01-08T07:04:56.603Z,99479.09
2023-01-08T07:09:59.450Z,99477.09
2023-01-08T07:15:04.074Z,99485.16
2023-01-08T07:20:08.081Z,99480.09
2023-01-08T07:25:11.238Z,99469.31
2023-01-08T07:30:28.999Z,99462.09
2023-01-08T07:35:32.820Z,99474.69
2023-01-08T07:40:36.465Z,99475.53
2023-01-08T07:45:42.094Z,99449.50
2023-01-08T07:50:45.063Z,99445.53
2023-01-08T07:55:48.064Z,99443.69
2023-01-08T08:00:52.155Z,99414.94
2023-01-08T08:05:54.955Z,99414.16
2023-01-08T08:10:57.793Z,99417.72
2023-01-08T08:16:05.422Z,99413.09
2023-01-08T08:21:08.215Z,99428.53
2023-01-08T08:26:11.029Z,99423.34
2023-01-08T08:31:15.546Z,99440.06
2023-01-08T08:36:18.488Z,99447.19
2023-01-08T08:41:21.230Z,99451.56
2023-01-08T08:46:26.037Z,99445.31
2023-01-08T08:51:29.289Z,99432.72
2023-01-08T08:56:32.274Z,99429.19
2023-01-08T09:01:36.581Z,99435.56
2023-01-08T09:06:39.410Z,99428.28
2023-01-08T09:11:42.171Z,99429.13
2023-01-08T09:16:46.262Z,99432.06
2023-01-08T09:21:49.170Z,99437.84
2023-01-08T09:26:54.176Z,99438.00
2023-01-08T09:32:00.580Z,99431.75
2023-01-08T09:37:03.414Z,99439.16
2023-01-08T09:42:06.687Z,99436.16
2023-01-08T09:47:21.956Z,99430.06
2023-01-08T09:52:24.737Z,99426.06
2023-01-08T09:57:27.559Z,99430.28
2023-01-08T10:02:31.967Z,99433.56
2023-01-08T10:07:34.894Z,99431.69
2023-01-08T10:12:37.775Z,99428.69
2023-01-08T10:17:42.800Z,99416.94
2023-01-08T10:22:47.701Z,99404.19
2023-01-08T10:27:51.456Z,99402.34
2023-01-08T10:32:56.709Z,99399.34
2023-01-08T10:37:59.515Z,99404.56
2023-01-08T10:43:07.615Z,99400.03
2023-01-08T10:48:17.888Z,99397.50
2023-01-08T10:53:24.251Z,99387.41
2023-01-08T10:58:28.634Z,99383.28
2023-01-08T11:03:33.402Z,99368.13
2023-01-08T11:08:36.277Z,99367.66
2023-01-08T11:13:39.062Z,99371.34
2023-01-08T11:18:46.150Z,99356.06
2023-01-08T11:23:49.237Z,99352.50
2023-01-08T11:28:53.704Z,99354.38
2023-01-08T11:34:00.141Z,99336.03
2023-01-08T11:39:03.071Z,99321.59
2023-01-08T11:44:23.572Z,99310.69
2023-01-08T11:49:35.867Z,99304.91
2023-01-08T11:54:47.209Z,99300.22
2023-01-08T11:59:56.961Z,99282.78
2023-01-08T12:05:23.417Z,99278.06
2023-01-08T12:10:30.922Z,99274.69
2023-01-08T12:15:40.810Z,99285.31
2023-01-08T12:20:48.340Z,99288.16
2023-01-08T12:26:13.591Z,99301.78
2023-01-08T12:31:25.623Z,99299.50
2023-01-08T12:36:33.306Z,99293.13
2023-01-08T12:41:36.186Z,99282.34
2023-01-08T12:46:39.963Z,99282.66
2023-01-08T12:51:49.630Z,99266.72
2023-01-08T12:56:54.733Z,99276.22
2023-01-08T13:02:02.593Z,99262.25
2023-01-08T13:07:06.967Z,99249.44
2023-01-08T13:12:10.234Z,99252.97
2023-01-08T13:17:18.994Z,99240.56
2023-01-08T13:22:26.150Z,99234.25
2023-01-08T13:27:30.254Z,99232.25
2023-01-08T13:32:42.703Z,99221.06
2023-01-08T13:37:47.858Z,99219.59
2023-01-08T13:42:50.877Z,99215.09
2023-01-08T13:47:53.682Z,99207.56
2023-01-08T13:52:59.116Z,99198.34
2023-01-08T13:58:03.698Z,99203.09
2023-01-08T14:03:06.852Z,99196.22
2023-01-08T14:08:24.855Z,99198.06
2023-01-08T14:13:29.066Z,99198.78
2023-01-08T14:18:31.808Z,99191.06
2023-01-08T14:23:37.324Z,99179.94
2023-01-08T14:28:40.087Z,99194.59
2023-01-08T14:33:43.001Z,99207.19
2023-01-08T14:38:50.836Z,99196.75
2023-01-08T14:43:53.673Z,99206.75
2023-01-08T14:48:56.512Z,99215.28
2023-01-08T14:54:01.335Z,99217.97
2023-01-08T14:59:08.042Z,99209.66
2023-01-08T15:04:16.679Z,99211.91
2023-01-08T15:09:24.751Z,99209.22
2023-01-08T15:14:28.346Z,99204.78
2023-01-08T15:19:31.824Z,99205.94
2023-01-08T15:24:39.184Z,99187.97
2023-01-08T15:29:48.410Z,99194.75
2023-01-08T15:34:51.160Z,99196.94
2023-01-08T15:39:55.468Z,99201.13
2023-01-08T15:44:58.446Z,99197.91
2023-01-08T15:50:01.496Z,99204.50
2023-01-08T15:55:06.735Z,99203.84
2023-01-08T16:00:11.275Z,99198.97
2023-01-08T16:05:14.489Z,99180.81
2023-01-08T16:10:19.098Z,99178.81
2023-01-08T16:15:22.681Z,99173.91
2023-01-08T16:20:25.628Z,99172.59
2023-01-08T16:25:31.414Z,99175.97
2023-01-08T16:30:34.453Z,99185.03
2023-01-08T16:35:37.248Z,99187.56
2023-01-08T16:40:41.475Z,99170.88
2023-01-08T16:45:45.575Z,99167.22
2023-01-08T16:50:48.734Z,99164.19
2023-01-08T16:55:53.253Z,99154.09
2023-01-08T17:00:56.121Z,99153.09
2023-01-08T17:06:01.917Z,99162.44
2023-01-08T17:11:09.624Z,99157.72
2023-01-08T17:16:14.817Z,99156.19
2023-01-08T17:21:18.223Z,99127.78
2023-01-08T17:26:22.347Z,99129.47
2023-01-08T17:31:25.202Z,99139.56
2023-01-08T17:36:28.081Z,99127.44
2023-01-08T17:41:49.928Z,99121.88
2023-01-08T17:46:52.830Z,99124.91
2023-01-08T17:51:56.982Z,99134.94
2023-01-08T17:57:01.178Z,99124.16
2023-01-08T18:02:03.991Z,99102.13
2023-01-08T18:07:07.002Z,99095.91
2023-01-08T18:12:11.292Z,99093.03
2023-01-08T18:17:14.075Z,99103.97
2023-01-08T18:22:16.909Z,99105.81
2023-01-08T18:27:21.179Z,99092.22
2023-01-08T18:32:26.008Z,99087.00
2023-01-08T18:37:28.975Z,99089.50
2023-01-08T18:42:34.131Z,99086.16
2023-01-08T18:47:38.253Z,99090.53
2023-01-08T18:52:41.964Z,99075.56
2023-01-08T18:57:47.351Z,99068.31
2023-01-08T19:02:51.943Z,99059.56
2023-01-08T19:07:54.836Z,99053.34
2023-01-08T19:12:59.050Z,99051.34
2023-01-08T19:18:01.846Z,99050.78
2023-01-08T19:23:04.786Z,99047.09
2023-01-08T19:28:09.072Z,99034.50
2023-01-08T19:33:12.835Z,99033.63
2023-01-08T19:38:15.636Z,99024.06
2023-01-08T19:43:37.469Z,99015.97
2023-01-08T19:48:42.312Z,99002.69
2023-01-08T19:53:45.179Z,99008.75
2023-01-08T19:58:49.580Z,99002.53
2023-01-08T20:03:52.464Z,98990.09
2023-01-08T20:08:57.438Z,98983.69
2023-01-08T20:14:02.860Z,98968.22
2023-01-08T20:19:05.794Z,98975.44
2023-01-08T20:24:11.719Z,98971.06
2023-01-08T20:29:16.699Z,98966.88
2023-01-08T20:34:19.475Z,98967.53
2023-01-08T20:39:22.261Z,98965.88
2023-01-08T20:44:26.434Z,98962.16
2023-01-08T20:49:29.821Z,98956.94
2023-01-08T20:54:32.688Z,98962.34
2023-01-08T20:59:36.927Z,98956.78
2023-01-08T21:04:41.680Z,98955.09
2023-01-08T21:09:45.029Z,98954.09
2023-01-08T21:14:49.268Z,98949.88
2023-01-08T21:19:52.132Z,98931.06
2023-01-08T21:24:54.964Z,98923.66
2023-01-08T21:29:59.271Z,98906.66
2023-01-08T21:35:02.063Z,98894.56
2023-01-08T21:40:06.117Z,98891.72
2023-01-08T21:45:25.632Z,98876.41
2023-01-08T21:50:28.376Z,98862.59
2023-01-08T21:55:31.154Z,98861.28
2023-01-08T22:00:35.333Z,98868.16
2023-01-08T22:05:38.109Z,98875.22
2023-01-08T22:10:41.060Z,98865.47
2023-01-08T22:15:45.202Z,98858.41
2023-01-08T22:20:47.993Z,98859.06
2023-01-08T22:25:50.758Z,98867.31
2023-01-08T22:30:54.978Z,98853.03
2023-01-08T22:35:57.772Z,98849.84
2023-01-08T22:41:00.560Z,98847.81
2023-01-08T22:46:04.724Z,98841.25
2023-01-08T22:51:07.520Z,98827.78
2023-01-08T22:56:12.172Z,98827.44
2023-01-08T23:01:17.642Z,98823.94
2023-01-08T23:06:21.052Z,98829.00
2023-01-08T23:11:24.401Z,98820.91
2023-01-08T23:16:28.604Z,98812.66
2023-01-08T23:21:31.423Z,98801.25
2023-01-08T23:26:34.194Z,98788.28
2023-01-08T23:31:38.555Z,98774.66
2023-01-08T23:36:42.870Z,98764.06
2023-01-08T23:41:45.687Z,98758.31
2023-01-08T23:46:49.865Z,98761.03
2023-01-08T23:51:52.718Z,98755.63
2023-01-08T23:56:55.472Z,98747.56
